Portada
METAR-TAF:

METAR-TAF

Aeropuertos :

Aurillac, Francia

latitud: 44-53N, longitud: 002-25E, altitud: 639 m

Observación

El informe se hizo hace 15 minutos, a las 13:30 UTC
Viento 9 kt del oeste, variando entre oeste-suroeste y noroeste
Temperatura 14°C
Humedad 58%
Presión 1012 hPa
Visibilidad 10 km o más
Nubes dispersas a una altura de 3100 ft
Cielo nuboso a una altura de 4200 ft
Cielo cubierto a una altura de 5200 ft

METAR: LFLW 261330Z AUTO 28009KT 240V320 9999 SCT031 BKN042 OVC052 14/06 Q1012 NOSIG

Hora: 15:45 (13:45 UTC)

Pronóstico

El informe se hizo hace 2 horas y 45 minutos, a las 11:00 UTC
Pronóstico válido del 26 a las 12 UTC al 26 a las 21 UTC
Viento 10 kt del oeste-noroeste
Visibilidad 10 km o más
Nubes dispersas a una altura de 2300 ft
Cielo nuboso a una altura de 4000 ft
Temporalmente
del 26 a las 18 UTC al 26 a las 21 UTC
Visibilidad: 4000 m
lluvia

TAF: LFLW 261100Z 2612/2621 29010KT 9999 SCT023 BKN040 TEMPO 2618/2621 4000 RA

Observaciones y pronósticos meteorológicos de más de 4000 aeropuertos (mensajes METAR y TAF).

Los puntos amarillos y rojos representan las estaciones disponibles.

Ponga el ratón en el punto deseado para ver el nombre de la estación.

Haga clic para ver las observaciones y los pronósticos meteorológicos.

Para cambiar el mapa : haga clic en los botones verdes con una cruz de color negro para hacer un zoom, en el botón verde con un guión para alejar o en las flechas verdes para mapas adyacentes.


METAR-TAF: